Time;durP1;ratioP1;P1;durP2;ratioP2;P2;SDS_P1;SDS_P2;PMS_P1;PMS_P2;Temp;Humidity;BMP_temperature;BMP_pressure;BME280_temperature;BME280_humidity;BME280_pressure;Samples;Min_cycle;Max_cycle;Signal;HPM_P1;HPM_P2
2023/04/02 00:01:51;;;;;;;3.33;2.83;;;;;;;9.78;70.19;95925.63;5086892;28;20230;-76
2023/04/02 00:04:25;;;;;;;3.70;2.93;;;;;;;9.62;69.95;95924.88;5088156;28;20228;-78
2023/04/02 00:06:55;;;;;;;3.00;2.70;;;;;;;9.68;70.12;95934.88;5087222;28;20208;-76
2023/04/02 00:09:27;;;;;;;2.83;2.63;;;;;;;9.67;69.82;95935.78;5087766;28;20181;-75
2023/04/02 00:11:55;;;;;;;3.40;3.03;;;;;;;9.56;69.67;95935.59;5069039;28;20254;-78
2023/04/02 00:14:32;;;;;;;4.10;3.03;;;;;;;9.63;69.82;95936.91;5069070;28;20272;-75
2023/04/02 00:17:02;;;;;;;3.63;3.20;;;;;;;9.56;69.84;95945.91;5087800;28;20200;-78
2023/04/02 00:19:37;;;;;;;3.20;2.90;;;;;;;9.49;69.41;95942.06;5052202;28;20633;-76
2023/04/02 00:22:08;;;;;;;3.33;3.03;;;;;;;9.32;70.54;95937.03;5087305;28;20714;-78
2023/04/02 00:24:37;;;;;;;3.50;3.20;;;;;;;9.15;70.87;95942.34;5068957;28;20307;-75
2023/04/02 00:27:09;;;;;;;3.70;3.40;;;;;;;8.89;71.65;95943.00;5087063;28;20181;-75
2023/04/02 00:29:43;;;;;;;3.73;3.40;;;;;;;8.68;72.72;95945.03;5087260;28;20191;-78
2023/04/02 00:32:18;;;;;;;3.83;3.50;;;;;;;8.63;73.18;95929.00;5086465;28;20180;-78
2023/04/02 00:34:46;;;;;;;4.77;3.80;;;;;;;8.71;72.96;95938.88;5069695;28;20274;-76
2023/04/02 00:37:22;;;;;;;3.73;3.43;;;;;;;8.89;72.04;95954.16;5068458;28;20682;-78
2023/04/02 00:39:52;;;;;;;4.10;3.70;;;;;;;8.88;71.97;95952.50;5086415;28;20191;-78
2023/04/02 00:42:19;;;;;;;4.00;3.50;;;;;;;8.84;72.59;95935.50;5087122;28;20196;-78
2023/04/02 00:44:48;;;;;;;3.87;3.50;;;;;;;8.84;72.41;95934.72;5086555;28;20215;-79
2023/04/02 00:47:23;;;;;;;3.40;3.10;;;;;;;8.90;71.79;95937.75;5087182;28;20253;-81
2023/04/02 00:50:03;;;;;;;3.30;3.00;;;;;;;8.97;71.07;95917.56;5086069;28;20203;-83
2023/04/02 00:52:32;;;;;;;3.50;3.20;;;;;;;9.18;70.72;95926.69;5086851;28;20192;-81
2023/04/02 00:55:02;;;;;;;5.03;2.70;;;;;;;9.18;69.89;95929.25;5086543;28;20574;-80
2023/04/02 00:57:32;;;;;;;3.03;2.73;;;;;;;9.08;70.41;95902.31;5086462;28;20851;-81
2023/04/02 01:00:16;;;;;;;3.20;2.90;;;;;;;9.44;69.75;95925.97;5086794;28;20642;-73
2023/04/02 01:03:15;;;;;;;2.97;2.70;;;;;;;9.60;69.20;95926.72;5085885;28;20188;-81
2023/04/02 01:05:47;;;;;;;3.20;2.70;;;;;;;9.49;69.01;95918.78;5086527;28;20730;-79
2023/04/02 01:08:41;;;;;;;5.60;2.80;;;;;;;9.63;68.73;95903.28;5086528;28;20184;-77
2023/04/02 01:11:27;;;;;;;3.00;2.77;;;;;;;9.75;68.79;95917.22;5086291;28;20515;-80
2023/04/02 01:14:12;;;;;;;3.30;2.90;;;;;;;9.85;67.89;95915.72;5068646;28;20189;-81
2023/04/02 01:16:46;;;;;;;3.13;2.83;;;;;;;9.96;67.31;95915.09;5086311;28;20181;-79
2023/04/02 01:19:28;;;;;;;3.37;3.07;;;;;;;9.95;67.75;95910.84;5068178;28;20191;-78
2023/04/02 01:22:07;;;;;;;2.80;2.50;;;;;;;9.89;66.81;95911.22;5086987;28;20821;-76
2023/04/02 01:24:37;;;;;;;2.83;2.60;;;;;;;9.90;68.33;95916.31;5067398;28;20232;-78
2023/04/02 01:27:23;;;;;;;3.10;2.80;;;;;;;9.80;68.86;95922.97;5086496;28;20705;-77
2023/04/02 01:29:55;;;;;;;3.27;2.97;;;;;;;9.96;69.06;95928.00;5086680;28;20189;-74
2023/04/02 01:32:26;;;;;;;5.97;3.00;;;;;;;9.67;68.86;95891.84;5051273;28;20200;-80
2023/04/02 01:34:55;;;;;;;2.60;2.40;;;;;;;9.75;69.56;95920.66;5086745;28;20193;-78
2023/04/02 01:37:31;;;;;;;3.10;2.80;;;;;;;9.55;70.64;95928.75;5085824;28;20189;-78
2023/04/02 01:40:23;;;;;;;3.07;2.57;;;;;;;9.56;69.52;95940.75;5086715;28;20200;-77
2023/04/02 01:43:16;;;;;;;3.13;2.83;;;;;;;9.63;69.49;95939.47;5067874;28;20272;-79
2023/04/02 01:45:43;;;;;;;3.37;2.40;;;;;;;9.30;69.83;95941.47;5067464;28;20717;-76
2023/04/02 01:48:18;;;;;;;3.43;2.50;;;;;;;9.02;70.61;95942.25;5068404;28;20177;-77
2023/04/02 01:50:50;;;;;;;3.03;2.80;;;;;;;8.68;72.54;95931.28;5088705;28;20188;-78
2023/04/02 01:53:19;;;;;;;3.43;3.13;;;;;;;8.55;73.26;95932.91;5090065;28;20220;-77
2023/04/02 01:55:47;;;;;;;2.73;2.33;;;;;;;8.53;72.96;95934.75;5071736;28;20224;-77
2023/04/02 01:58:20;;;;;;;3.17;2.80;;;;;;;8.39;71.87;95883.91;5071275;28;20632;-79
2023/04/02 02:00:56;;;;;;;6.67;3.07;;;;;;;8.92;71.71;95932.50;5090103;28;20196;-75
2023/04/02 02:03:24;;;;;;;3.30;3.00;;;;;;;9.04;70.94;95947.31;5070884;28;20298;-76
2023/04/02 02:06:31;;;;;;;16.13;8.47;;;;;;;9.07;70.22;95930.81;5071915;28;20192;-74
2023/04/02 02:09:23;;;;;;;8.87;5.83;;;;;;;9.09;71.49;95944.47;5088998;28;20190;-77
2023/04/02 02:11:51;;;;;;;6.47;4.57;;;;;;;8.97;71.46;95951.16;5070663;28;20191;-76
2023/04/02 02:14:23;;;;;;;4.87;3.27;;;;;;;9.09;71.95;95942.69;5089916;28;20234;-77
2023/04/02 02:17:14;;;;;;;3.60;3.30;;;;;;;8.96;71.62;95939.97;5060439;28;20240;-77
2023/04/02 02:19:55;;;;;;;3.90;2.93;;;;;;;9.04;71.33;95947.31;5089475;28;20200;-76
2023/04/02 02:22:29;;;;;;;4.10;3.43;;;;;;;9.00;71.54;95940.66;5089779;28;20235;-78
2023/04/02 02:24:59;;;;;;;3.50;3.20;;;;;;;9.07;70.80;95957.44;5088555;28;20220;-77
2023/04/02 02:27:26;;;;;;;3.50;2.80;;;;;;;9.02;71.11;95954.31;5071659;28;20268;-76
2023/04/02 02:30:18;;;;;;;3.43;2.80;;;;;;;9.09;70.90;95960.78;5070906;28;20198;-80
2023/04/02 02:32:52;;;;;;;3.30;2.80;;;;;;;9.14;69.83;95963.94;5070889;28;20180;-78
2023/04/02 02:35:25;;;;;;;3.50;2.93;;;;;;;9.00;69.74;95950.97;5071587;28;20642;-77
2023/04/02 02:38:27;;;;;;;4.23;2.93;;;;;;;9.21;69.32;95961.84;5071508;28;20646;-74
2023/04/02 02:41:10;;;;;;;3.00;2.60;;;;;;;9.44;68.80;95969.06;5071800;28;20610;-77
2023/04/02 02:43:40;;;;;;;3.20;2.90;;;;;;;9.47;68.79;95971.47;5092442;28;20220;-76
2023/04/02 02:46:13;;;;;;;3.93;3.13;;;;;;;9.34;69.54;95966.19;5055156;28;20318;-75
2023/04/02 02:48:42;;;;;;;4.83;3.77;;;;;;;9.49;69.22;95970.47;5090024;28;20184;-75
2023/04/02 02:51:22;;;;;;;10.23;4.73;;;;;;;9.53;68.68;95955.63;5070532;28;20212;-75
2023/04/02 02:53:53;;;;;;;4.57;3.70;;;;;;;9.59;70.77;95973.34;5071003;28;20279;-72
2023/04/02 02:56:22;;;;;;;3.70;3.30;;;;;;;9.54;70.48;95959.88;5089099;28;20216;-74
2023/04/02 02:58:52;;;;;;;5.07;3.67;;;;;;;9.70;70.00;95958.03;5070188;28;20185;-73
2023/04/02 03:01:29;;;;;;;3.33;3.00;;;;;;;9.43;70.41;95942.41;5070081;28;20184;-76
2023/04/02 03:04:02;;;;;;;4.17;3.47;;;;;;;9.31;71.36;95970.72;5069857;28;20220;-73
2023/04/02 03:06:30;;;;;;;4.60;3.93;;;;;;;9.16;71.36;95919.94;5053868;28;20188;-74
2023/04/02 03:09:40;;;;;;;4.93;3.53;;;;;;;9.47;71.20;95964.56;5070361;28;20189;-76
2023/04/02 03:12:30;;;;;;;5.33;4.00;;;;;;;9.53;71.35;95966.78;5069960;28;20208;-80
2023/04/02 03:15:25;;;;;;;8.20;5.27;;;;;;;9.30;72.88;95972.47;5089388;28;20618;-76
2023/04/02 03:18:09;;;;;;;6.23;4.60;;;;;;;9.26;73.40;95963.22;5070517;28;20192;-80
2023/04/02 03:20:48;;;;;;;4.30;3.63;;;;;;;9.30;72.48;95974.19;5088053;28;20858;-77
2023/04/02 03:23:23;;;;;;;4.77;3.23;;;;;;;9.28;72.31;95971.72;5070507;28;20675;-78
2023/04/02 03:26:18;;;;;;;3.40;2.83;;;;;;;9.32;72.20;95978.38;5087882;28;20184;-78
2023/04/02 03:28:58;;;;;;;3.43;3.07;;;;;;;9.28;72.02;95983.78;5069871;28;20243;-80
2023/04/02 03:31:38;;;;;;;4.40;2.83;;;;;;;9.16;71.53;95990.50;5070722;28;20180;-78
2023/04/02 03:34:28;;;;;;;3.33;3.03;;;;;;;9.14;71.59;95987.19;5087980;28;20189;-79
2023/04/02 03:37:05;;;;;;;3.13;2.77;;;;;;;9.10;72.85;95983.09;5070087;28;20185;-77
2023/04/02 03:39:39;;;;;;;4.33;3.23;;;;;;;8.97;71.73;95993.28;5069770;28;20196;-75
2023/04/02 03:42:09;;;;;;;3.93;3.53;;;;;;;8.74;72.84;95980.00;5069407;28;20192;-76
2023/04/02 03:44:44;;;;;;;4.63;4.13;;;;;;;8.69;73.49;95976.84;5070155;28;20216;-78
2023/04/02 03:47:17;;;;;;;6.70;4.33;;;;;;;8.55;74.83;95989.69;5068983;28;20241;-76
2023/04/02 03:49:57;;;;;;;4.90;4.30;;;;;;;8.47;76.13;95986.69;5070032;28;20242;-77
2023/04/02 03:52:27;;;;;;;6.03;4.67;;;;;;;8.73;75.20;95997.25;5052870;28;20279;-78
2023/04/02 03:55:00;;;;;;;7.10;4.43;;;;;;;9.03;74.54;96000.69;5069293;28;20189;-77
2023/04/02 03:57:42;;;;;;;5.83;4.53;;;;;;;9.02;74.21;95995.63;5069897;28;20192;-78
2023/04/02 04:00:31;;;;;;;4.97;4.20;;;;;;;9.06;74.00;95986.78;5068798;28;20196;-77
2023/04/02 04:03:10;;;;;;;5.83;5.13;;;;;;;9.10;74.72;96003.78;5053021;28;20699;-79
2023/04/02 04:05:47;;;;;;;7.10;6.07;;;;;;;8.92;74.58;95995.28;5069586;28;20679;-80
2023/04/02 04:08:20;;;;;;;7.83;5.70;;;;;;;8.81;74.67;95991.66;5068862;28;20212;-75
2023/04/02 04:10:52;;;;;;;6.23;4.60;;;;;;;8.79;74.15;95986.59;5069648;28;20696;-78
2023/04/02 04:13:28;;;;;;;6.00;4.50;;;;;;;8.83;75.14;95998.41;5087053;28;20656;-77
2023/04/02 04:16:06;;;;;;;5.70;4.40;;;;;;;8.78;75.42;96007.28;5087496;28;20514;-77
2023/04/02 04:18:51;;;;;;;7.23;4.80;;;;;;;8.78;75.74;96002.13;5069030;28;20253;-76
2023/04/02 04:21:58;;;;;;;5.60;4.70;;;;;;;8.84;75.27;96004.41;5068658;28;20251;-75
2023/04/02 04:24:24;;;;;;;5.00;4.47;;;;;;;8.93;74.41;96006.44;5068784;28;20278;-76
2023/04/02 04:27:12;;;;;;;4.93;4.20;;;;;;;8.85;74.41;95993.16;5068854;28;20191;-77
2023/04/02 04:30:02;;;;;;;4.83;4.03;;;;;;;8.95;75.05;96000.28;5068415;28;20184;-78
2023/04/02 04:32:48;;;;;;;5.20;4.00;;;;;;;9.12;74.95;96021.75;5069379;28;20181;-75
2023/04/02 04:35:35;;;;;;;8.87;5.83;;;;;;;9.29;74.42;96014.72;5065195;28;20193;-79
2023/04/02 04:38:26;;;;;;;10.17;7.23;;;;;;;9.46;74.17;96022.31;5065325;28;20202;-79
2023/04/02 04:41:00;;;;;;;11.97;7.57;;;;;;;9.46;74.16;96017.16;5049368;28;20675;-79
2023/04/02 04:43:40;;;;;;;12.80;8.07;;;;;;;9.65;73.85;96022.94;5047981;28;20181;-79
2023/04/02 04:46:15;;;;;;;14.80;7.83;;;;;;;9.75;73.54;96015.47;5065857;28;20188;-76
2023/04/02 04:49:11;;;;;;;9.30;6.97;;;;;;;9.65;73.40;96027.25;5048993;28;20189;-78
2023/04/02 04:52:11;;;;;;;9.80;7.03;;;;;;;9.62;73.29;96030.84;5046916;28;20259;-73
2023/04/02 04:54:38;;;;;;;7.73;5.80;;;;;;;9.56;73.95;96028.63;5049136;28;20841;-74
2023/04/02 04:57:21;;;;;;;7.37;5.57;;;;;;;9.63;72.92;96029.94;5065365;28;20183;-77
2023/04/02 04:59:57;;;;;;;9.10;4.90;;;;;;;9.75;71.97;96024.06;5048482;28;20691;-79
2023/04/02 05:02:35;;;;;;;7.27;5.43;;;;;;;9.89;71.87;96022.41;5065509;28;20189;-76
2023/04/02 05:05:15;;;;;;;19.30;7.97;;;;;;;9.98;72.88;96027.88;5064530;28;20907;-77
2023/04/02 05:07:49;;;;;;;8.07;4.90;;;;;;;10.07;71.07;96040.25;5065547;28;20239;-78
2023/04/02 05:10:34;;;;;;;5.77;4.80;;;;;;;9.98;70.63;96019.28;5065071;28;20252;-78
2023/04/02 05:13:13;;;;;;;7.40;5.27;;;;;;;10.31;70.24;96041.41;5065085;28;20738;-78
2023/04/02 05:15:49;;;;;;;5.00;4.27;;;;;;;10.28;69.52;96056.28;5066272;28;20213;-79
2023/04/02 05:18:27;;;;;;;4.70;3.83;;;;;;;10.31;69.54;96048.31;5065217;28;20255;-76
2023/04/02 05:21:02;;;;;;;7.70;4.90;;;;;;;10.38;70.53;96044.44;5061411;28;20245;-80
2023/04/02 05:23:36;;;;;;;7.47;5.73;;;;;;;10.52;71.21;96047.88;5049379;28;20562;-75
2023/04/02 05:26:14;;;;;;;10.80;4.97;;;;;;;10.78;70.33;96043.66;5052162;28;20184;-75
2023/04/02 05:29:01;;;;;;;6.03;3.87;;;;;;;10.76;67.97;96031.75;5071012;28;20716;-79
2023/04/02 05:31:38;;;;;;;5.07;3.97;;;;;;;10.73;67.12;96050.03;5052049;28;20707;-77
2023/04/02 05:34:06;;;;;;;4.13;2.90;;;;;;;10.71;66.64;96062.25;5070187;28;20311;-73
2023/04/02 05:36:33;;;;;;;4.77;3.07;;;;;;;10.74;66.17;96042.19;5052312;28;20766;-74
2023/04/02 05:39:00;;;;;;;8.17;3.10;;;;;;;10.95;66.21;96046.03;5051716;28;20191;-75
2023/04/02 05:41:39;;;;;;;3.13;2.67;;;;;;;11.19;65.11;96047.03;5030683;28;20311;-73
2023/04/02 05:44:06;;;;;;;9.10;5.27;;;;;;;11.25;65.76;96059.59;5085173;28;20303;-73
2023/04/02 05:46:39;;;;;;;4.80;3.93;;;;;;;11.25;65.85;96046.66;5072205;28;20204;-76
2023/04/02 05:49:16;;;;;;;6.40;4.20;;;;;;;11.42;64.54;96068.91;5090016;28;20703;-73
2023/04/02 05:51:48;;;;;;;4.70;3.43;;;;;;;11.23;63.22;96061.47;5054653;28;20198;-73
2023/04/02 05:54:29;;;;;;;6.13;3.70;;;;;;;11.08;63.41;96067.66;5090126;28;20838;-74
2023/04/02 05:57:10;;;;;;;3.77;3.23;;;;;;;11.09;64.45;96061.53;5070769;28;20194;-74
2023/04/02 05:59:42;;;;;;;3.97;3.00;;;;;;;11.18;63.56;96076.50;5090125;28;20180;-74
2023/04/02 06:02:24;;;;;;;4.50;3.70;;;;;;;11.24;64.55;96070.09;5089496;28;20185;-74
2023/04/02 06:05:00;;;;;;;3.10;2.80;;;;;;;11.29;64.03;96061.06;5054582;28;20210;-75
2023/04/02 06:07:40;;;;;;;4.13;2.87;;;;;;;11.35;64.38;96067.66;5071863;28;20190;-76
2023/04/02 06:10:13;;;;;;;3.97;3.10;;;;;;;11.34;64.98;96064.22;5088840;28;20268;-75
2023/04/02 06:12:45;;;;;;;5.40;3.73;;;;;;;11.37;65.13;96058.00;5070911;28;20198;-77
2023/04/02 06:15:17;;;;;;;7.43;3.97;;;;;;;11.58;63.85;96058.38;5054256;28;20640;-75
2023/04/02 06:17:50;;;;;;;4.93;3.57;;;;;;;11.75;63.01;96068.50;5054033;28;20208;-73
2023/04/02 06:20:20;;;;;;;7.10;3.03;;;;;;;11.81;62.93;96060.34;5071507;28;20276;-75
2023/04/02 06:22:51;;;;;;;3.90;2.70;;;;;;;12.00;62.51;96074.56;5070412;28;20192;-74
2023/04/02 06:25:40;;;;;;;2.93;2.50;;;;;;;11.94;62.04;96074.13;5068769;28;20212;-74
2023/04/02 06:28:16;;;;;;;2.30;1.93;;;;;;;12.12;61.89;96067.72;5068509;28;20186;-76
2023/04/02 06:30:53;;;;;;;4.10;2.93;;;;;;;12.10;61.72;96079.94;5070629;28;20235;-73
2023/04/02 06:33:21;;;;;;;6.70;3.00;;;;;;;12.11;61.56;96060.88;5089409;28;20289;-78
2023/04/02 06:35:50;;;;;;;3.40;2.50;;;;;;;12.40;60.74;96079.66;5087314;28;20203;-75
2023/04/02 06:38:29;;;;;;;7.30;3.17;;;;;;;12.59;61.48;96082.66;5071241;28;20186;-76
2023/04/02 06:41:04;;;;;;;5.33;2.60;;;;;;;13.11;60.40;96079.91;5087067;28;20200;-73
2023/04/02 06:43:49;;;;;;;2.43;1.97;;;;;;;12.97;59.83;96073.84;5050493;28;20592;-77
2023/04/02 06:46:51;;;;;;;7.77;2.83;;;;;;;13.26;59.41;96086.56;5082752;28;20229;-76
2023/04/02 06:49:39;;;;;;;4.17;3.10;;;;;;;13.37;59.91;96089.25;5088011;28;20193;-74
2023/04/02 06:52:22;;;;;;;5.90;3.13;;;;;;;13.70;59.57;96090.22;5070377;28;20190;-78
2023/04/02 06:54:50;;;;;;;9.33;2.73;;;;;;;13.74;58.00;96076.06;5070721;28;20222;-78
2023/04/02 06:57:17;;;;;;;3.80;1.83;;;;;;;13.75;57.17;96092.50;5069735;28;20278;-72
2023/04/02 06:59:46;;;;;;;2.40;1.93;;;;;;;13.93;56.67;96104.16;5088971;28;20187;-78
2023/04/02 07:02:33;;;;;;;6.30;2.00;;;;;;;13.87;56.77;96104.59;5069573;28;20189;-74
2023/04/02 07:05:08;;;;;;;5.17;3.13;;;;;;;13.69;57.00;96104.19;5053886;28;20606;-76
2023/04/02 07:07:38;;;;;;;5.00;2.90;;;;;;;13.78;57.14;96102.69;5088390;28;20184;-77
2023/04/02 07:10:09;;;;;;;4.80;2.60;;;;;;;13.74;57.40;96096.88;5069455;28;20186;-74
2023/04/02 07:12:36;;;;;;;7.93;2.57;;;;;;;13.99;56.85;96116.72;5070458;28;20689;-75
2023/04/02 07:15:03;;;;;;;4.97;2.30;;;;;;;14.14;56.95;96126.00;5087841;28;20196;-73
2023/04/02 07:17:31;;;;;;;7.57;3.27;;;;;;;14.00;56.95;96127.97;5072826;28;20194;-73
2023/04/02 07:19:58;;;;;;;5.40;2.10;;;;;;;13.84;56.67;96102.25;5070023;28;20185;-75
2023/04/02 07:22:25;;;;;;;3.77;1.60;;;;;;;13.94;56.20;96118.84;5088227;28;20672;-74
2023/04/02 07:24:58;;;;;;;1.83;1.33;;;;;;;14.01;56.28;96114.00;5070537;28;20212;-73
2023/04/02 07:27:26;;;;;;;3.23;1.83;;;;;;;13.99;56.25;96116.72;5087594;28;20188;-74
2023/04/02 07:29:53;;;;;;;15.40;2.40;;;;;;;14.11;56.56;96109.78;5088557;28;20283;-77
2023/04/02 07:32:20;;;;;;;3.20;1.90;;;;;;;14.11;56.15;96123.63;5086867;28;20195;-78
2023/04/02 07:34:47;;;;;;;6.93;2.40;;;;;;;14.16;56.35;96124.09;5088397;28;20638;-76
2023/04/02 07:37:15;;;;;;;7.20;2.30;;;;;;;14.23;56.60;96135.75;5069191;28;20199;-79
2023/04/02 07:39:42;;;;;;;4.67;2.50;;;;;;;14.26;55.68;96096.44;5088064;28;20212;-79
2023/04/02 07:42:09;;;;;;;6.23;2.30;;;;;;;14.40;55.69;96113.66;5069655;28;20687;-80
2023/04/02 07:44:36;;;;;;;3.47;2.03;;;;;;;14.49;56.03;96111.19;5086305;28;20223;-75
2023/04/02 07:47:04;;;;;;;6.37;3.13;;;;;;;14.85;55.73;96132.78;5068913;28;20195;-79
2023/04/02 07:49:31;;;;;;;9.80;2.73;;;;;;;14.90;53.74;96123.66;5068437;28;20248;-78
2023/04/02 07:51:58;;;;;;;4.87;2.10;;;;;;;14.92;53.35;96128.75;5070051;28;20517;-78
2023/04/02 07:54:26;;;;;;;4.30;2.67;;;;;;;14.85;53.76;96144.03;5087595;28;20197;-77
2023/04/02 07:56:53;;;;;;;6.67;2.90;;;;;;;15.17;52.11;96133.72;5088558;28;20763;-80
2023/04/02 07:59:20;;;;;;;7.47;2.60;;;;;;;15.05;51.74;96127.69;5094903;28;20643;-77
2023/04/02 08:01:47;;;;;;;8.10;2.10;;;;;;;15.14;52.07;96123.53;5079491;28;20204;-79
2023/04/02 08:04:17;;;;;;;5.10;2.17;;;;;;;15.33;51.19;96126.34;5089573;28;20201;-78
2023/04/02 08:06:44;;;;;;;2.53;1.47;;;;;;;15.39;51.35;96129.28;5052117;28;20185;-77
2023/04/02 08:09:13;;;;;;;6.30;1.50;;;;;;;15.40;51.52;96122.28;5087991;28;20852;-78
2023/04/02 08:11:41;;;;;;;2.10;1.47;;;;;;;15.81;49.94;96126.84;5086889;28;20184;-78
2023/04/02 08:14:08;;;;;;;2.40;0.93;;;;;;;15.70;49.75;96122.50;5087201;28;20325;-78
2023/04/02 08:16:50;;;;;;;5.60;1.03;;;;;;;15.63;49.38;96123.94;5087361;28;20189;-75
2023/04/02 08:19:18;;;;;;;4.67;1.40;;;;;;;15.60;48.69;96111.13;5086038;28;20309;-75
2023/04/02 08:21:46;;;;;;;6.60;2.10;;;;;;;15.88;49.05;96121.00;5087246;28;20373;-73
2023/04/02 08:24:13;;;;;;;3.93;1.20;;;;;;;16.08;47.34;96122.81;5086224;28;20188;-79
2023/04/02 08:26:41;;;;;;;3.27;1.70;;;;;;;16.21;48.93;96127.88;5087389;28;20755;-75
2023/04/02 08:29:12;;;;;;;2.63;1.80;;;;;;;16.14;48.21;96127.53;5068415;28;20676;-77
2023/04/02 08:31:39;;;;;;;2.30;1.40;;;;;;;16.25;47.93;96135.31;5086805;28;20209;-75
2023/04/02 08:34:06;;;;;;;8.30;1.93;;;;;;;16.22;48.72;96129.50;5068572;28;20204;-79
2023/04/02 08:36:37;;;;;;;1.93;1.23;;;;;;;16.18;47.19;96123.72;5086292;28;20250;-79
2023/04/02 08:39:09;;;;;;;1.33;1.10;;;;;;;16.26;47.01;96123.91;5087247;28;20699;-75
2023/04/02 08:41:46;;;;;;;4.57;1.30;;;;;;;16.29;47.35;96122.84;5051272;28;20247;-80
2023/04/02 08:44:21;;;;;;;1.33;1.20;;;;;;;16.47;47.44;96128.28;5068753;28;20192;-80
2023/04/02 08:46:53;;;;;;;1.97;1.13;;;;;;;16.38;44.88;96123.84;5085376;28;20232;-77
2023/04/02 08:49:48;;;;;;;1.67;1.10;;;;;;;16.32;45.53;96119.13;5085967;28;20287;-77
2023/04/02 08:53:07;;;;;;;7.30;1.87;;;;;;;16.41;45.64;96123.59;5086936;28;20697;-73
2023/04/02 08:56:28;;;;;;;3.43;1.27;;;;;;;16.59;44.40;96116.88;5079465;28;20278;-74
2023/04/02 08:59:25;;;;;;;4.60;2.20;;;;;;;16.81;43.58;96117.53;5064393;28;20216;-76
2023/04/02 09:02:19;;;;;;;4.03;1.33;;;;;;;16.86;43.70;96120.56;5066496;28;20566;-79
2023/04/02 09:04:46;;;;;;;2.13;1.20;;;;;;;17.04;43.41;96112.97;5066289;28;20552;-77
2023/04/02 09:07:15;;;;;;;5.17;1.90;;;;;;;17.10;43.28;96128.13;5065068;28;20203;-78
2023/04/02 09:09:47;;;;;;;4.07;1.80;;;;;;;17.16;42.94;96132.00;5084490;28;20203;-77
2023/04/02 09:12:23;;;;;;;0.80;0.80;;;;;;;17.08;42.71;96135.28;5084854;28;20193;-78
2023/04/02 09:15:06;;;;;;;7.00;1.10;;;;;;;17.18;42.35;96132.69;5074108;28;20255;-74
2023/04/02 09:17:33;;;;;;;1.20;1.00;;;;;;;16.88;42.56;96123.88;5068733;28;20694;-79
2023/04/02 09:20:25;;;;;;;3.83;1.27;;;;;;;17.00;43.67;96135.91;5065248;28;20195;-79
2023/04/02 09:22:53;;;;;;;2.43;1.70;;;;;;;17.05;44.15;96146.00;5066180;28;20216;-77
2023/04/02 09:25:28;;;;;;;2.13;1.37;;;;;;;17.33;43.42;96147.06;5047420;28;20221;-75
2023/04/02 09:27:59;;;;;;;1.43;0.70;;;;;;;17.29;42.25;96143.88;5065792;28;20194;-79
2023/04/02 09:30:29;;;;;;;2.23;1.10;;;;;;;17.42;42.04;96149.72;5048065;28;20607;-75
2023/04/02 09:33:06;;;;;;;3.13;1.30;;;;;;;17.51;42.04;96150.72;5065179;28;20190;-78
2023/04/02 09:35:35;;;;;;;4.27;1.30;;;;;;;17.64;41.88;96156.56;5066200;28;20187;-78
2023/04/02 09:38:16;;;;;;;3.97;1.10;;;;;;;17.47;42.10;96150.16;5065338;28;20705;-81
2023/04/02 09:40:49;;;;;;;2.80;1.30;;;;;;;17.76;41.60;96148.44;5065983;28;20215;-80
2023/04/02 09:43:18;;;;;;;2.00;0.97;;;;;;;17.69;41.17;96146.50;5048333;28;20214;-78
2023/04/02 09:46:02;;;;;;;7.13;1.67;;;;;;;17.69;41.51;96151.72;5065738;28;20414;-77
2023/04/02 09:48:57;;;;;;;1.80;1.70;;;;;;;17.56;41.93;96146.75;5066845;28;20214;-80
2023/04/02 09:51:30;;;;;;;1.30;1.20;;;;;;;17.58;41.62;96144.81;5079886;28;20624;-78
2023/04/02 09:54:03;;;;;;;2.30;1.10;;;;;;;17.79;40.66;96147.34;5065866;28;20666;-78
2023/04/02 09:56:35;;;;;;;3.80;1.10;;;;;;;18.01;40.46;96146.28;5066538;28;20190;-78
2023/04/02 09:59:14;;;;;;;0.87;0.70;;;;;;;17.80;39.82;96134.09;5065408;28;20221;-79
2023/04/02 10:01:44;;;;;;;2.77;1.83;;;;;;;17.66;40.60;96139.72;5066102;28;20201;-77
2023/04/02 10:04:34;;;;;;;2.13;1.10;;;;;;;17.88;39.64;96146.53;5065007;28;20207;-77
2023/04/02 10:07:03;;;;;;;1.20;1.10;;;;;;;17.35;41.42;96132.06;5065601;28;20234;-78
2023/04/02 10:09:33;;;;;;;2.00;1.30;;;;;;;17.51;40.73;96130.63;5048624;28;20636;-76
2023/04/02 10:12:03;;;;;;;6.33;2.83;;;;;;;17.67;40.70;96128.31;5080284;28;20198;-81
2023/04/02 10:14:36;;;;;;;1.37;0.80;;;;;;;17.73;40.22;96122.53;5069792;28;20194;-76
2023/04/02 10:17:21;;;;;;;2.07;1.10;;;;;;;17.96;40.12;96125.72;5077667;28;20209;-76
2023/04/02 10:19:55;;;;;;;3.40;1.10;;;;;;;18.13;39.85;96114.56;5089285;28;20371;-76
2023/04/02 10:22:22;;;;;;;1.50;0.80;;;;;;;18.18;39.61;96117.56;5078212;28;20239;-76
2023/04/02 10:24:50;;;;;;;2.10;0.90;;;;;;;18.21;39.04;96116.47;5068397;28;20582;-76
2023/04/02 10:27:21;;;;;;;1.07;0.70;;;;;;;18.08;39.17;96113.28;5069653;28;20219;-77
2023/04/02 10:30:12;;;;;;;0.80;0.70;;;;;;;18.17;39.68;96120.34;5068319;28;20554;-74
2023/04/02 10:32:54;;;;;;;1.97;1.30;;;;;;;18.33;39.07;96117.97;5084395;28;20262;-74
2023/04/02 10:35:21;;;;;;;1.73;0.80;;;;;;;18.38;38.27;96111.34;5069602;28;20194;-78
2023/04/02 10:38:18;;;;;;;2.33;0.90;;;;;;;18.09;39.14;96104.47;5050178;28;20275;-73
2023/04/02 10:41:05;;;;;;;1.47;0.70;;;;;;;18.23;39.34;96114.53;5058877;28;20721;-73
2023/04/02 10:43:45;;;;;;;1.50;1.00;;;;;;;18.09;40.40;96117.59;5068498;28;20678;-79
2023/04/02 10:46:30;;;;;;;1.90;1.13;;;;;;;17.79;40.52;96115.91;5067976;28;20230;-77
2023/04/02 10:49:12;;;;;;;1.37;0.80;;;;;;;17.67;41.01;96107.34;5068819;28;20297;-77
2023/04/02 10:52:02;;;;;;;3.43;0.80;;;;;;;18.00;39.96;96107.91;5067753;28;20244;-77
2023/04/02 10:55:19;;;;;;;2.53;1.00;;;;;;;18.39;38.45;96110.38;5068230;28;20313;-76
2023/04/02 10:58:26;;;;;;;1.63;1.03;;;;;;;18.82;37.90;96103.81;5024856;28;20206;-75
2023/04/02 11:01:15;;;;;;;1.30;1.00;;;;;;;18.79;36.51;96076.09;5068244;28;20290;-80
2023/04/02 11:03:51;;;;;;;1.67;0.80;;;;;;;18.80;36.12;96085.59;5087548;28;20817;-78
2023/04/02 11:06:25;;;;;;;1.20;0.80;;;;;;;18.41;35.51;96060.41;5089044;28;20644;-74
2023/04/02 11:09:05;;;;;;;0.70;0.70;;;;;;;18.63;36.12;96086.31;5088522;28;20681;-79
2023/04/02 11:11:42;;;;;;;1.37;0.70;;;;;;;18.50;36.59;96070.09;5088960;28;20223;-77
2023/04/02 11:14:16;;;;;;;0.87;0.63;;;;;;;18.76;36.51;96091.25;5089598;28;20195;-74
2023/04/02 11:16:44;;;;;;;3.07;1.10;;;;;;;18.96;35.82;96098.13;5088106;28;20216;-75
2023/04/02 11:19:17;;;;;;;0.93;0.80;;;;;;;19.05;38.20;96092.81;5086194;28;20702;-75
2023/04/02 11:22:02;;;;;;;1.03;0.90;;;;;;;18.60;40.02;96091.88;5075518;28;20230;-74
2023/04/02 11:24:44;;;;;;;3.10;1.20;;;;;;;18.30;38.76;96069.25;5070338;28;20199;-76
2023/04/02 11:27:13;;;;;;;1.73;0.80;;;;;;;18.45;39.11;96080.16;5089098;28;20245;-74
2023/04/02 11:29:57;;;;;;;1.20;0.80;;;;;;;18.21;40.60;96075.38;5088200;28;20717;-75
2023/04/02 11:32:48;;;;;;;1.33;0.90;;;;;;;18.16;39.58;96077.56;5088691;28;20185;-78
2023/04/02 11:35:26;;;;;;;0.60;0.60;;;;;;;17.91;38.57;96078.13;5088546;28;20234;-78
2023/04/02 11:37:59;;;;;;;1.47;1.00;;;;;;;18.34;37.82;96080.31;5088601;28;20213;-74
2023/04/02 11:40:38;;;;;;;3.17;1.00;;;;;;;18.55;37.07;96078.34;5083870;28;20271;-75
2023/04/02 11:43:33;;;;;;;2.03;0.83;;;;;;;18.81;36.85;96068.91;5087671;28;20197;-77
2023/04/02 11:46:24;;;;;;;1.40;1.07;;;;;;;18.70;37.00;96074.31;5053851;28;20299;-78
2023/04/02 11:48:53;;;;;;;0.73;0.73;;;;;;;18.71;36.31;96069.91;5070625;28;20187;-79
2023/04/02 11:51:24;;;;;;;4.63;0.80;;;;;;;18.90;36.03;96068.00;5087763;28;20282;-77
2023/04/02 11:53:53;;;;;;;2.37;1.07;;;;;;;18.94;36.05;96061.50;5088974;28;20199;-79
2023/04/02 11:56:30;;;;;;;1.40;0.63;;;;;;;19.02;36.14;96066.84;5083678;28;20194;-79
2023/04/02 11:59:23;;;;;;;1.23;0.80;;;;;;;19.11;36.10;96071.25;5077560;28;20694;-75
2023/04/02 12:02:23;;;;;;;1.03;0.70;;;;;;;18.91;35.56;96069.69;5092732;28;20210;-79
2023/04/02 12:04:53;;;;;;;1.13;0.70;;;;;;;19.06;35.78;96072.66;5099031;28;20237;-81
2023/04/02 12:07:50;;;;;;;1.83;0.73;;;;;;;19.06;36.03;96075.28;5073756;28;20739;-78
2023/04/02 12:10:27;;;;;;;0.80;0.70;;;;;;;18.93;36.38;96065.13;5088750;28;20246;-76
2023/04/02 12:12:54;;;;;;;1.20;0.80;;;;;;;19.00;36.66;96066.16;5073002;28;20708;-80
2023/04/02 12:15:35;;;;;;;2.30;1.17;;;;;;;19.12;37.21;96067.66;5063990;28;20192;-79
2023/04/02 12:18:13;;;;;;;4.33;1.20;;;;;;;19.31;36.20;96059.66;5069477;28;20673;-77
2023/04/02 12:20:41;;;;;;;2.10;1.10;;;;;;;19.29;35.38;96058.16;5070072;28;20223;-80
2023/04/02 12:23:18;;;;;;;3.13;1.00;;;;;;;19.26;35.24;96054.03;5088122;28;20191;-81